createdAt,value
2018-11-13T00:02:03.556Z,97396.92
2018-11-13T00:06:58.089Z,97389.88
2018-11-13T00:11:52.497Z,97398.98
2018-11-13T00:16:46.959Z,97396.56
2018-11-13T00:21:41.492Z,97403.16
2018-11-13T00:26:35.948Z,97401.12
2018-11-13T00:31:30.397Z,97409.11
2018-11-13T00:36:24.884Z,97415.83
2018-11-13T00:41:19.298Z,97423.06
2018-11-13T00:46:13.730Z,97425.10
2018-11-13T00:51:08.242Z,97425.30
2018-11-13T00:56:02.688Z,97424.64
2018-11-13T01:00:57.150Z,97439.06
2018-11-13T01:05:51.842Z,97443.98
2018-11-13T01:10:46.063Z,97443.98
2018-11-13T01:15:40.487Z,97447.16
2018-11-13T01:20:34.932Z,97453.16
2018-11-13T01:25:29.366Z,97443.70
2018-11-13T01:30:23.880Z,97439.70
2018-11-13T01:35:19.013Z,97448.27
2018-11-13T01:40:16.390Z,97444.23
2018-11-13T01:45:12.924Z,97454.78
2018-11-13T01:50:07.813Z,97457.75
2018-11-13T01:55:02.243Z,97455.55
2018-11-13T01:59:56.679Z,97452.31
2018-11-13T02:04:51.103Z,97445.64
2018-11-13T02:09:45.564Z,97444.91
2018-11-13T02:14:39.982Z,97462.88
2018-11-13T02:19:34.444Z,97466.40
2018-11-13T02:24:28.913Z,97468.95
2018-11-13T02:29:23.331Z,97472.06
2018-11-13T02:34:17.826Z,97483.44
2018-11-13T02:39:12.429Z,97485.77
2018-11-13T02:44:07.548Z,97492.81
2018-11-13T02:49:02.035Z,97499.13
2018-11-13T02:53:56.459Z,97502.63
2018-11-13T02:58:50.887Z,97514.44
2018-11-13T03:03:45.296Z,97514.70
2018-11-13T03:08:40.697Z,97516.37
2018-11-13T03:13:35.227Z,97514.80
2018-11-13T03:18:29.673Z,97517.44
2018-11-13T03:23:24.112Z,97530.61
2018-11-13T03:28:18.560Z,97540.84
2018-11-13T03:33:12.976Z,97549.22
2018-11-13T03:38:07.477Z,97557.41
2018-11-13T03:43:01.891Z,97551.83
2018-11-13T03:47:56.308Z,97557.84
2018-11-13T03:52:50.845Z,97556.30
2018-11-13T03:57:46.065Z,97570.23
2018-11-13T04:02:40.925Z,97574.48
2018-11-13T04:07:39.847Z,97586.42
2018-11-13T04:12:34.340Z,97582.23
2018-11-13T04:17:28.860Z,97582.31
2018-11-13T04:22:23.300Z,97589.08
2018-11-13T04:27:17.768Z,97586.66
2018-11-13T04:32:12.217Z,97590.70
2018-11-13T04:37:06.655Z,97592.52
2018-11-13T04:42:01.076Z,97597.86
2018-11-13T04:46:55.543Z,97606.06
2018-11-13T04:51:50.025Z,97614.06
2018-11-13T04:56:44.517Z,97632.14
2018-11-13T05:01:38.987Z,97628.27
2018-11-13T05:06:33.484Z,97626.09
2018-11-13T05:11:27.945Z,97629.58
2018-11-13T05:16:22.441Z,97637.17
2018-11-13T05:21:16.920Z,97649.61
2018-11-13T05:26:11.363Z,97654.83
2018-11-13T05:31:06.081Z,97654.47
2018-11-13T05:36:00.528Z,97652.30
2018-11-13T05:40:54.992Z,97656.89
2018-11-13T05:45:49.753Z,97665.48
2018-11-13T05:50:44.287Z,97679.48
2018-11-13T05:55:38.777Z,97690.41
2018-11-13T06:00:34.439Z,97684.63
2018-11-13T06:05:29.116Z,97685.75
2018-11-13T06:10:23.781Z,97692.41
2018-11-13T06:15:18.883Z,97694.70
2018-11-13T06:20:15.300Z,97716.69
2018-11-13T06:25:12.779Z,97713.52
2018-11-13T06:30:14.384Z,97721.36
2018-11-13T06:35:09.069Z,97729.93
2018-11-13T06:40:05.458Z,97744.43
2018-11-13T06:44:59.916Z,97746.05
2018-11-13T06:49:59.210Z,97762.89
2018-11-13T06:55:02.236Z,97770.70
2018-11-13T06:59:56.792Z,97785.52
2018-11-13T07:04:51.420Z,97774.98
2018-11-13T07:09:46.032Z,97789.13
2018-11-13T07:14:40.616Z,97801.89
2018-11-13T07:19:35.490Z,97800.92
2018-11-13T07:24:30.304Z,97810.96
2018-11-13T07:29:24.806Z,97811.31
2018-11-13T07:34:19.543Z,97827.63
2018-11-13T07:39:13.961Z,97827.44
2018-11-13T07:44:08.453Z,97843.37
2018-11-13T07:49:03.047Z,97852.54
2018-11-13T07:54:00.140Z,97866.77
2018-11-13T07:58:55.206Z,97868.47
2018-11-13T08:03:51.668Z,97884.02
2018-11-13T08:08:46.241Z,97891.69
2018-11-13T08:13:40.814Z,97897.11
2018-11-13T08:18:35.264Z,97911.34
2018-11-13T08:23:29.721Z,97950.20
2018-11-13T08:28:24.576Z,97964.84
2018-11-13T08:33:19.811Z,97993.78
2018-11-13T08:38:14.417Z,98001.18
2018-11-13T08:43:09.442Z,98000.55
2018-11-13T08:48:04.132Z,98015.83
2018-11-13T08:52:58.706Z,98025.34
2018-11-13T08:57:53.364Z,98018.28
2018-11-13T09:02:48.781Z,98034.76
2018-11-13T09:07:43.409Z,98045.08
2018-11-13T09:12:38.384Z,98058.46
2018-11-13T09:17:32.836Z,98081.93
2018-11-13T09:22:30.922Z,98083.56
2018-11-13T09:27:25.729Z,98101.66
2018-11-13T09:32:21.345Z,98103.85
2018-11-13T09:37:15.828Z,98114.58
2018-11-13T09:42:10.438Z,98121.53
2018-11-13T09:47:05.096Z,98138.73
2018-11-13T09:51:59.604Z,98151.57
2018-11-13T09:57:03.411Z,98136.77
2018-11-13T10:01:59.058Z,98139.44
2018-11-13T10:06:56.971Z,98122.42
2018-11-13T10:12:07.880Z,98125.22
2018-11-13T10:17:07.899Z,98122.17
2018-11-13T10:22:03.343Z,98120.31
2018-11-13T10:26:58.147Z,98126.94
2018-11-13T10:31:52.751Z,98131.28
2018-11-13T10:36:47.640Z,98138.18
2018-11-13T10:41:43.990Z,98144.77
2018-11-13T10:46:38.797Z,98140.03
2018-11-13T10:51:36.990Z,98149.09
2018-11-13T10:56:34.913Z,98121.50
2018-11-13T11:01:34.676Z,98131.84
2018-11-13T11:06:31.762Z,98130.48
2018-11-13T11:11:26.419Z,98126.23
2018-11-13T11:16:21.060Z,98123.30
2018-11-13T11:21:15.700Z,98114.14
2018-11-13T11:26:10.668Z,98129.91
2018-11-13T11:31:05.485Z,98132.86
2018-11-13T11:36:00.494Z,98130.06
2018-11-13T11:40:56.056Z,98139.36
2018-11-13T11:45:50.668Z,98126.73
2018-11-13T11:50:45.228Z,98118.84
2018-11-13T11:55:40.627Z,98143.44
2018-11-13T12:00:39.664Z,98145.97
2018-11-13T12:05:37.200Z,98140.74
2018-11-13T12:10:33.809Z,98136.89
2018-11-13T12:15:28.314Z,98130.31
2018-11-13T12:20:23.196Z,98133.25
2018-11-13T12:25:20.270Z,98128.51
2018-11-13T12:30:18.006Z,98120.00
2018-11-13T12:35:15.040Z,98121.52
2018-11-13T12:40:14.603Z,98116.86
2018-11-13T12:45:09.984Z,98122.04
2018-11-13T12:50:06.296Z,98113.53
2018-11-13T12:55:00.893Z,98127.06
2018-11-13T12:59:55.505Z,98122.94
2018-11-13T13:04:50.846Z,98131.84
2018-11-13T13:09:45.970Z,98141.25
2018-11-13T13:14:40.593Z,98144.97
2018-11-13T13:19:35.351Z,98133.64
2018-11-13T13:24:29.848Z,98134.16
2018-11-13T13:29:24.624Z,98142.85
2018-11-13T13:34:19.440Z,98139.73
2018-11-13T13:39:13.951Z,98140.63
2018-11-13T13:44:08.857Z,98145.50
2018-11-13T13:49:04.385Z,98150.05
2018-11-13T13:53:59.323Z,98173.48
2018-11-13T13:58:53.880Z,98176.86
2018-11-13T14:03:48.451Z,98179.55
2018-11-13T14:08:43.247Z,98174.17
2018-11-13T14:13:37.780Z,98176.48
2018-11-13T14:18:32.458Z,98181.22
2018-11-13T14:23:28.142Z,98181.21
2018-11-13T14:28:36.041Z,98194.78
2018-11-13T14:33:30.893Z,98203.52
2018-11-13T14:38:25.831Z,98228.95
2018-11-13T14:43:20.814Z,98212.59
2018-11-13T14:48:15.848Z,98229.84
2018-11-13T14:53:11.492Z,98230.48
2018-11-13T14:58:07.735Z,98232.80
2018-11-13T15:03:03.686Z,98236.80
2018-11-13T15:07:59.690Z,98242.63
2018-11-13T15:12:54.322Z,98237.59
2018-11-13T15:17:48.940Z,98244.00
2018-11-13T15:22:44.202Z,98249.36
2018-11-13T15:27:39.045Z,98253.38
2018-11-13T15:32:33.586Z,98250.69
2018-11-13T15:37:28.345Z,98268.80
2018-11-13T15:42:22.862Z,98265.30
2018-11-13T15:47:17.374Z,98250.75
2018-11-13T15:52:11.907Z,98256.07
2018-11-13T15:57:06.515Z,98276.87
2018-11-13T16:02:01.079Z,98288.19
2018-11-13T16:06:55.820Z,98300.86
2018-11-13T16:11:50.445Z,98295.84
2018-11-13T16:16:48.267Z,98310.64
2018-11-13T16:21:48.078Z,98320.38
2018-11-13T16:26:42.612Z,98318.38
2018-11-13T16:31:37.565Z,98312.36
2018-11-13T16:36:32.246Z,98318.41
2018-11-13T16:41:26.749Z,98324.53
2018-11-13T16:46:21.607Z,98319.70
2018-11-13T16:51:16.048Z,98316.36
2018-11-13T16:56:10.570Z,98329.27
2018-11-13T17:01:07.788Z,98329.19
2018-11-13T17:06:02.366Z,98323.22
2018-11-13T17:10:56.754Z,98325.23
2018-11-13T17:15:51.533Z,98322.24
2018-11-13T17:20:46.047Z,98319.54
2018-11-13T17:25:40.528Z,98319.64
2018-11-13T17:30:38.746Z,98329.71
2018-11-13T17:35:33.586Z,98335.45
2018-11-13T17:40:30.336Z,98337.96
2018-11-13T17:45:26.304Z,98344.23
2018-11-13T17:50:23.880Z,98348.30
2018-11-13T17:55:18.820Z,98354.37
2018-11-13T18:00:23.698Z,98354.87
2018-11-13T18:05:19.371Z,98358.80
2018-11-13T18:10:13.860Z,98352.29
2018-11-13T18:15:11.932Z,98360.61
2018-11-13T18:20:09.888Z,98368.17
2018-11-13T18:25:04.496Z,98371.71
2018-11-13T18:29:59.152Z,98366.97
2018-11-13T18:34:53.872Z,98365.08
2018-11-13T18:39:48.427Z,98367.41
2018-11-13T18:44:42.883Z,98369.25
2018-11-13T18:49:37.375Z,98367.95
2018-11-13T18:54:31.808Z,98373.69
2018-11-13T18:59:26.346Z,98389.36
2018-11-13T19:04:20.732Z,98378.61
2018-11-13T19:09:15.163Z,98376.16
2018-11-13T19:14:09.601Z,98374.64
2018-11-13T19:19:04.136Z,98371.41
2018-11-13T19:23:58.664Z,98370.12
2018-11-13T19:28:53.096Z,98368.03
2018-11-13T19:33:47.553Z,98370.63
2018-11-13T19:38:41.948Z,98365.58
2018-11-13T19:43:36.388Z,98369.33
2018-11-13T19:48:30.824Z,98375.38
2018-11-13T19:53:25.407Z,98372.42
2018-11-13T19:58:19.783Z,98376.52
2018-11-13T20:03:14.248Z,98372.44
2018-11-13T20:08:09.660Z,98377.14
2018-11-13T20:13:05.481Z,98379.28
2018-11-13T20:17:59.918Z,98382.20
2018-11-13T20:22:54.796Z,98377.00
2018-11-13T20:27:49.303Z,98389.23
2018-11-13T20:32:43.815Z,98364.45
2018-11-13T20:37:38.441Z,98363.14
2018-11-13T20:42:32.691Z,98369.14
2018-11-13T20:47:27.205Z,98371.92
2018-11-13T20:52:21.628Z,98372.89
2018-11-13T20:57:16.055Z,98377.48
2018-11-13T21:02:10.518Z,98363.75
2018-11-13T21:07:05.026Z,98371.73
2018-11-13T21:11:59.468Z,98370.60
2018-11-13T21:16:54.085Z,98374.81
2018-11-13T21:21:48.384Z,98377.09
2018-11-13T21:26:42.876Z,98370.22
2018-11-13T21:31:37.355Z,98368.59
2018-11-13T21:36:31.814Z,98361.56
2018-11-13T21:41:26.220Z,98359.39
2018-11-13T21:46:20.635Z,98364.64
2018-11-13T21:51:15.046Z,98365.50
2018-11-13T21:56:09.481Z,98369.59
2018-11-13T22:01:03.904Z,98370.56
2018-11-13T22:05:58.371Z,98365.80
2018-11-13T22:10:52.815Z,98366.25
2018-11-13T22:15:47.484Z,98373.92
2018-11-13T22:20:43.617Z,98371.63
2018-11-13T22:25:36.516Z,98361.48
2018-11-13T22:30:32.246Z,98370.94
2018-11-13T22:35:26.724Z,98360.33
2018-11-13T22:40:23.312Z,98365.69
2018-11-13T22:45:19.220Z,98363.88
2018-11-13T22:50:31.750Z,98364.88
2018-11-13T22:55:26.223Z,98363.55
2018-11-13T23:00:30.385Z,98369.61
2018-11-13T23:05:24.879Z,98368.89
2018-11-13T23:10:19.365Z,98352.91
2018-11-13T23:15:15.441Z,98358.44
2018-11-13T23:20:12.232Z,98349.94
2018-11-13T23:25:08.100Z,98350.89
2018-11-13T23:30:02.643Z,98345.48
2018-11-13T23:34:57.035Z,98350.64
2018-11-13T23:39:51.473Z,98341.34
2018-11-13T23:44:45.924Z,98338.87
2018-11-13T23:49:40.632Z,98341.63
2018-11-13T23:54:34.745Z,98335.38
2018-11-13T23:59:29.157Z,98336.17
